createdAt,value
2018-11-13T00:00:45.146Z,10.20
2018-11-13T00:03:13.609Z,10.21
2018-11-13T00:05:42.068Z,10.19
2018-11-13T00:08:10.474Z,10.14
2018-11-13T00:10:39.020Z,10.14
2018-11-13T00:13:07.499Z,10.12
2018-11-13T00:15:36.009Z,10.13
2018-11-13T00:18:05.884Z,10.15
2018-11-13T00:20:34.554Z,10.12
2018-11-13T00:23:03.460Z,10.11
2018-11-13T00:25:32.415Z,10.06
2018-11-13T00:28:00.839Z,10.07
2018-11-13T00:30:29.735Z,10.01
2018-11-13T00:32:58.183Z,10.03
2018-11-13T00:35:26.639Z,10.03
2018-11-13T00:37:55.288Z,10.01
2018-11-13T00:40:23.697Z,9.99
2018-11-13T00:42:52.138Z,9.98
2018-11-13T00:45:22.864Z,9.97
2018-11-13T00:47:51.712Z,9.93
2018-11-13T00:50:20.934Z,9.92
2018-11-13T00:52:49.792Z,9.94
2018-11-13T00:55:18.439Z,9.97
2018-11-13T00:57:46.961Z,10.00
2018-11-13T01:00:17.766Z,10.02
2018-11-13T01:02:46.411Z,10.01
2018-11-13T01:05:16.223Z,9.98
2018-11-13T01:07:45.797Z,9.98
2018-11-13T01:10:15.497Z,9.95
2018-11-13T01:12:44.913Z,9.92
2018-11-13T01:15:14.426Z,9.93
2018-11-13T01:17:43.847Z,9.94
2018-11-13T01:20:12.472Z,9.92
2018-11-13T01:22:40.949Z,9.97
2018-11-13T01:25:10.562Z,9.97
2018-11-13T01:27:38.984Z,9.94
2018-11-13T01:30:09.063Z,9.93
2018-11-13T01:32:39.055Z,9.92
2018-11-13T01:35:09.297Z,9.92
2018-11-13T01:37:37.735Z,9.93
2018-11-13T01:40:08.894Z,9.92
2018-11-13T01:42:37.341Z,9.94
2018-11-13T01:45:07.396Z,9.94
2018-11-13T01:47:35.895Z,9.93
2018-11-13T01:50:04.434Z,9.93
2018-11-13T01:52:33.080Z,9.90
2018-11-13T01:55:01.376Z,9.90
2018-11-13T01:57:29.813Z,9.91
2018-11-13T01:59:58.290Z,9.92
2018-11-13T02:02:26.707Z,9.88
2018-11-13T02:04:55.174Z,9.84
2018-11-13T02:07:23.645Z,9.83
2018-11-13T02:09:52.102Z,9.84
2018-11-13T02:12:20.577Z,9.83
2018-11-13T02:14:48.977Z,9.83
2018-11-13T02:17:17.441Z,9.83
2018-11-13T02:19:45.849Z,9.85
2018-11-13T02:22:14.324Z,9.85
2018-11-13T02:24:42.832Z,9.85
2018-11-13T02:27:11.269Z,9.81
2018-11-13T02:29:39.649Z,9.81
2018-11-13T02:32:08.093Z,9.82
2018-11-13T02:34:36.573Z,9.83
2018-11-13T02:37:05.002Z,9.83
2018-11-13T02:39:33.435Z,9.81
2018-11-13T02:42:01.858Z,9.79
2018-11-13T02:44:30.268Z,9.81
2018-11-13T02:46:58.749Z,9.81
2018-11-13T02:49:27.200Z,9.79
2018-11-13T02:51:55.631Z,9.77
2018-11-13T02:54:24.016Z,9.77
2018-11-13T02:56:52.393Z,9.75
2018-11-13T02:59:20.940Z,9.75
2018-11-13T03:01:49.323Z,9.73
2018-11-13T03:04:17.744Z,9.69
2018-11-13T03:06:46.142Z,9.62
2018-11-13T03:09:14.638Z,9.59
2018-11-13T03:11:43.035Z,9.56
2018-11-13T03:14:11.575Z,9.57
2018-11-13T03:16:39.952Z,9.58
2018-11-13T03:19:08.362Z,9.57
2018-11-13T03:21:36.776Z,9.60
2018-11-13T03:24:05.459Z,9.59
2018-11-13T03:26:33.845Z,9.61
2018-11-13T03:29:02.285Z,9.61
2018-11-13T03:31:30.893Z,9.59
2018-11-13T03:33:59.220Z,9.59
2018-11-13T03:36:27.758Z,9.61
2018-11-13T03:38:56.167Z,9.61
2018-11-13T03:41:24.701Z,9.63
2018-11-13T03:43:53.100Z,9.66
2018-11-13T03:46:21.587Z,9.66
2018-11-13T03:48:50.006Z,9.68
2018-11-13T03:51:18.512Z,9.70
2018-11-13T03:53:46.952Z,9.72
2018-11-13T03:56:15.376Z,9.73
2018-11-13T03:58:43.776Z,9.78
2018-11-13T04:01:12.226Z,9.78
2018-11-13T04:03:40.605Z,9.79
2018-11-13T04:06:09.114Z,9.77
2018-11-13T04:08:37.553Z,9.79
2018-11-13T04:11:06.405Z,9.79
2018-11-13T04:13:34.852Z,9.80
2018-11-13T04:16:03.287Z,9.80
2018-11-13T04:18:31.787Z,9.81
2018-11-13T04:21:00.243Z,9.81
2018-11-13T04:23:28.660Z,9.83
2018-11-13T04:25:57.121Z,9.83
2018-11-13T04:28:25.555Z,9.84
2018-11-13T04:30:54.026Z,9.86
2018-11-13T04:33:22.389Z,9.83
2018-11-13T04:35:50.845Z,9.83
2018-11-13T04:38:19.291Z,9.83
2018-11-13T04:40:48.045Z,9.84
2018-11-13T04:43:16.480Z,9.84
2018-11-13T04:45:44.889Z,9.84
2018-11-13T04:48:13.310Z,9.84
2018-11-13T04:53:23.445Z,9.82
2018-11-13T04:55:51.896Z,9.83
2018-11-13T04:58:20.342Z,9.84
2018-11-13T05:00:48.925Z,9.84
2018-11-13T05:03:17.328Z,9.86
2018-11-13T05:05:45.728Z,9.87
2018-11-13T05:08:14.134Z,9.89
2018-11-13T05:10:42.570Z,9.88
2018-11-13T05:13:10.984Z,9.89
2018-11-13T05:15:39.352Z,9.89
2018-11-13T05:18:07.776Z,9.90
2018-11-13T05:20:36.194Z,9.90
2018-11-13T05:23:05.040Z,9.90
2018-11-13T05:25:33.464Z,9.90
2018-11-13T05:28:01.865Z,9.89
2018-11-13T05:30:30.485Z,9.89
2018-11-13T05:32:58.921Z,9.88
2018-11-13T05:35:27.358Z,9.88
2018-11-13T05:37:55.734Z,9.88
2018-11-13T05:40:25.157Z,9.87
2018-11-13T05:42:53.594Z,9.87
2018-11-13T05:45:23.559Z,9.83
2018-11-13T05:47:51.980Z,9.81
2018-11-13T05:50:20.796Z,9.79
2018-11-13T05:52:50.723Z,9.77
2018-11-13T05:55:19.163Z,9.75
2018-11-13T05:57:47.818Z,9.74
2018-11-13T06:00:19.106Z,9.71
2018-11-13T06:02:47.577Z,9.69
2018-11-13T06:05:16.047Z,9.68
2018-11-13T06:07:44.500Z,9.66
2018-11-13T06:10:13.349Z,9.63
2018-11-13T06:12:42.041Z,9.65
2018-11-13T06:15:10.806Z,9.66
2018-11-13T06:17:39.227Z,9.68
2018-11-13T06:20:09.420Z,9.69
2018-11-13T06:22:37.914Z,9.68
2018-11-13T06:25:07.861Z,9.67
2018-11-13T06:27:36.668Z,9.65
2018-11-13T06:30:07.998Z,9.64
2018-11-13T06:32:36.463Z,9.61
2018-11-13T06:35:05.272Z,9.59
2018-11-13T06:37:33.666Z,9.58
2018-11-13T06:40:02.115Z,9.56
2018-11-13T06:42:30.529Z,9.55
2018-11-13T06:44:58.977Z,9.55
2018-11-13T06:47:27.446Z,9.53
2018-11-13T06:49:55.913Z,9.53
2018-11-13T06:52:24.438Z,9.53
2018-11-13T06:55:03.173Z,9.52
2018-11-13T06:57:32.519Z,9.54
2018-11-13T07:00:01.627Z,9.56
2018-11-13T07:02:30.112Z,9.59
2018-11-13T07:04:58.800Z,9.60
2018-11-13T07:07:27.198Z,9.62
2018-11-13T07:09:55.807Z,9.62
2018-11-13T07:12:24.264Z,9.58
2018-11-13T07:14:52.752Z,9.65
2018-11-13T07:17:21.204Z,9.69
2018-11-13T07:19:50.693Z,9.71
2018-11-13T07:22:19.143Z,9.73
2018-11-13T07:24:47.656Z,9.76
2018-11-13T07:27:16.200Z,9.79
2018-11-13T07:29:44.573Z,9.85
2018-11-13T07:32:13.164Z,9.86
2018-11-13T07:34:41.622Z,9.88
2018-11-13T07:37:10.047Z,9.89
2018-11-13T07:39:38.505Z,9.94
2018-11-13T07:42:06.973Z,9.97
2018-11-13T07:44:35.445Z,10.00
2018-11-13T07:47:03.937Z,10.02
2018-11-13T07:49:32.362Z,10.07
2018-11-13T07:52:01.148Z,10.15
2018-11-13T07:54:29.985Z,10.22
2018-11-13T07:56:58.434Z,10.24
2018-11-13T07:59:26.876Z,10.24
2018-11-13T08:01:55.345Z,10.30
2018-11-13T08:04:23.797Z,10.32
2018-11-13T08:06:52.344Z,10.34
2018-11-13T08:09:20.727Z,10.35
2018-11-13T08:11:49.220Z,10.36
2018-11-13T08:14:17.703Z,10.45
2018-11-13T08:16:46.154Z,10.46
2018-11-13T08:19:14.603Z,10.44
2018-11-13T08:21:43.098Z,10.38
2018-11-13T08:24:11.547Z,10.35
2018-11-13T08:26:40.013Z,10.30
2018-11-13T08:29:08.478Z,10.31
2018-11-13T08:31:36.884Z,10.27
2018-11-13T08:34:05.780Z,10.24
2018-11-13T08:36:34.233Z,10.31
2018-11-13T08:39:03.120Z,10.30
2018-11-13T08:41:31.558Z,10.35
2018-11-13T08:44:00.063Z,10.32
2018-11-13T08:46:28.451Z,10.33
2018-11-13T08:48:56.932Z,10.36
2018-11-13T08:51:25.591Z,10.41
2018-11-13T08:53:54.156Z,10.46
2018-11-13T08:56:22.591Z,10.59
2018-11-13T08:58:51.210Z,10.70
2018-11-13T09:01:19.652Z,10.74
2018-11-13T09:03:48.123Z,10.84
2018-11-13T09:06:16.609Z,10.85
2018-11-13T09:08:45.034Z,10.92
2018-11-13T09:11:13.552Z,10.96
2018-11-13T09:13:41.893Z,11.01
2018-11-13T09:16:10.288Z,10.97
2018-11-13T09:18:38.843Z,10.98
2018-11-13T09:21:07.356Z,11.05
2018-11-13T09:23:35.785Z,11.09
2018-11-13T09:26:05.242Z,11.16
2018-11-13T09:28:33.783Z,11.19
2018-11-13T09:31:02.363Z,11.25
2018-11-13T09:33:30.802Z,11.26
2018-11-13T09:35:59.188Z,11.29
2018-11-13T09:38:27.653Z,11.35
2018-11-13T09:40:56.081Z,11.32
2018-11-13T09:43:24.582Z,11.30
2018-11-13T09:45:53.096Z,11.32
2018-11-13T09:48:21.581Z,11.37
2018-11-13T09:50:50.291Z,11.42
2018-11-13T09:53:18.635Z,11.54
2018-11-13T09:55:47.056Z,11.62
2018-11-13T09:58:15.562Z,11.62
2018-11-13T10:00:44.156Z,11.64
2018-11-13T10:03:13.115Z,11.61
2018-11-13T10:05:41.136Z,11.58
2018-11-13T10:08:09.454Z,11.58
2018-11-13T10:10:37.960Z,11.54
2018-11-13T10:13:06.399Z,11.60
2018-11-13T10:15:34.859Z,11.63
2018-11-13T10:18:03.411Z,11.61
2018-11-13T10:20:31.697Z,11.59
2018-11-13T10:23:00.473Z,11.06
2018-11-13T10:25:28.888Z,11.57
2018-11-13T10:27:57.372Z,11.58
2018-11-13T10:30:26.143Z,11.67
2018-11-13T10:32:55.172Z,11.75
2018-11-13T10:35:24.940Z,11.89
2018-11-13T10:37:53.462Z,11.93
2018-11-13T10:40:22.664Z,11.86
2018-11-13T10:42:51.729Z,11.86
2018-11-13T10:45:22.102Z,11.84
2018-11-13T10:47:51.544Z,11.86
2018-11-13T10:50:21.761Z,11.83
2018-11-13T10:52:50.236Z,11.83
2018-11-13T10:55:18.712Z,11.81
2018-11-13T10:57:47.129Z,11.83
2018-11-13T11:00:21.537Z,11.89
2018-11-13T11:03:57.041Z,11.91
2018-11-13T11:06:25.514Z,11.95
2018-11-13T11:08:54.510Z,11.92
2018-11-13T11:11:22.925Z,11.91
2018-11-13T11:13:53.281Z,11.91
2018-11-13T11:16:21.939Z,12.00
2018-11-13T11:18:51.045Z,12.00
2018-11-13T11:21:19.389Z,12.00
2018-11-13T11:23:48.008Z,12.01
2018-11-13T11:26:16.357Z,11.96
2018-11-13T11:28:44.847Z,11.91
2018-11-13T11:31:13.297Z,11.88
2018-11-13T11:33:41.726Z,11.87
2018-11-13T11:36:10.144Z,11.87
2018-11-13T11:38:38.686Z,11.89
2018-11-13T11:41:07.152Z,11.89
2018-11-13T11:43:35.657Z,11.95
2018-11-13T11:46:04.096Z,12.02
2018-11-13T11:48:32.565Z,12.03
2018-11-13T11:51:01.013Z,12.06
2018-11-13T11:53:29.441Z,12.15
2018-11-13T11:55:57.896Z,12.19
2018-11-13T11:58:26.390Z,12.16
2018-11-13T12:00:54.816Z,12.13
2018-11-13T12:03:23.291Z,12.12
2018-11-13T12:05:51.709Z,12.07
2018-11-13T12:08:20.165Z,12.00
2018-11-13T12:10:48.567Z,11.99
2018-11-13T12:13:17.037Z,11.97
2018-11-13T12:15:45.478Z,11.92
2018-11-13T12:18:13.969Z,11.91
2018-11-13T12:20:42.425Z,11.95
2018-11-13T12:23:10.845Z,11.99
2018-11-13T12:25:39.314Z,11.95
2018-11-13T12:28:07.734Z,11.84
2018-11-13T12:30:36.298Z,11.74
2018-11-13T12:33:05.348Z,11.67
2018-11-13T12:35:33.776Z,11.68
2018-11-13T12:38:02.218Z,11.71
2018-11-13T12:40:30.712Z,11.74
2018-11-13T12:42:59.187Z,11.83
2018-11-13T12:45:27.726Z,11.93
2018-11-13T12:47:56.162Z,11.95
2018-11-13T12:50:24.641Z,12.00
2018-11-13T12:52:53.045Z,12.02
2018-11-13T12:55:22.932Z,11.96
2018-11-13T12:57:51.480Z,12.03
2018-11-13T13:00:22.996Z,12.08
2018-11-13T13:02:51.584Z,12.09
2018-11-13T13:05:20.104Z,12.11
2018-11-13T13:07:48.505Z,12.11
2018-11-13T13:10:18.225Z,12.09
2018-11-13T13:12:46.714Z,12.12
2018-11-13T13:15:16.461Z,12.07
2018-11-13T13:17:45.322Z,11.96
2018-11-13T13:20:16.333Z,11.99
2018-11-13T13:22:45.980Z,12.13
2018-11-13T13:25:15.752Z,12.19
2018-11-13T13:27:44.215Z,12.19
2018-11-13T13:30:16.922Z,12.17
2018-11-13T13:32:46.382Z,12.25
2018-11-13T13:35:48.904Z,12.39
2018-11-13T13:38:17.413Z,12.41
2018-11-13T13:40:47.238Z,12.50
2018-11-13T13:43:16.183Z,12.50
2018-11-13T13:45:45.886Z,12.39
2018-11-13T13:48:14.544Z,12.36
2018-11-13T13:50:43.925Z,12.23
2018-11-13T13:53:13.481Z,12.11
2018-11-13T13:55:42.356Z,12.06
2018-11-13T13:58:11.136Z,12.02
2018-11-13T14:00:39.591Z,12.07
2018-11-13T14:03:09.178Z,12.15
2018-11-13T14:05:37.870Z,12.34
2018-11-13T14:08:06.978Z,12.39
2018-11-13T14:10:35.560Z,12.33
2018-11-13T14:13:04.048Z,12.28
2018-11-13T14:15:32.508Z,12.18
2018-11-13T14:18:00.950Z,12.14
2018-11-13T14:20:29.480Z,12.08
2018-11-13T14:22:57.967Z,12.05
2018-11-13T14:25:26.484Z,12.01
2018-11-13T14:27:54.952Z,11.97
2018-11-13T14:33:11.140Z,11.90
2018-11-13T14:35:39.748Z,11.87
2018-11-13T14:38:08.107Z,11.80
2018-11-13T14:40:45.085Z,11.74
2018-11-13T14:43:14.730Z,11.70
2018-11-13T14:45:43.622Z,11.64
2018-11-13T14:48:12.616Z,11.71
2018-11-13T14:50:41.493Z,11.71
2018-11-13T14:53:10.559Z,11.68
2018-11-13T14:55:40.541Z,11.67
2018-11-13T14:58:10.445Z,11.61
2018-11-13T15:00:39.452Z,11.61
2018-11-13T15:03:09.333Z,11.64
2018-11-13T15:05:37.885Z,11.59
2018-11-13T15:08:07.568Z,11.54
2018-11-13T15:10:41.686Z,11.51
2018-11-13T15:13:10.672Z,11.49
2018-11-13T15:15:39.117Z,11.49
2018-11-13T15:18:07.893Z,11.42
2018-11-13T15:20:36.444Z,11.41
2018-11-13T15:23:05.761Z,11.43
2018-11-13T15:25:34.263Z,11.46
2018-11-13T15:28:02.756Z,11.47
2018-11-13T15:30:32.832Z,11.31
2018-11-13T15:33:02.799Z,11.42
2018-11-13T15:35:31.273Z,11.35
2018-11-13T15:37:59.705Z,11.38
2018-11-13T15:40:29.416Z,11.32
2018-11-13T15:42:57.850Z,11.26
2018-11-13T15:45:26.457Z,11.22
2018-11-13T15:47:56.104Z,11.19
2018-11-13T15:50:26.040Z,11.13
2018-11-13T15:52:54.807Z,11.11
2018-11-13T15:55:23.333Z,11.12
2018-11-13T15:57:51.933Z,11.09
2018-11-13T16:00:28.028Z,11.03
2018-11-13T16:02:57.583Z,10.99
2018-11-13T16:05:38.832Z,10.97
2018-11-13T16:08:08.123Z,10.96
2018-11-13T16:10:36.723Z,10.91
2018-11-13T16:13:05.337Z,10.87
2018-11-13T16:15:33.934Z,10.85
2018-11-13T16:18:03.737Z,10.80
2018-11-13T16:20:32.204Z,10.75
2018-11-13T16:23:00.640Z,10.70
2018-11-13T16:25:29.185Z,10.66
2018-11-13T16:27:57.593Z,10.63
2018-11-13T16:30:27.554Z,10.62
2018-11-13T16:32:56.032Z,10.56
2018-11-13T16:35:25.637Z,10.49
2018-11-13T16:37:55.132Z,10.41
2018-11-13T16:40:25.724Z,10.34
2018-11-13T16:42:54.343Z,10.32
2018-11-13T16:45:23.833Z,10.36
2018-11-13T16:47:53.715Z,10.37
2018-11-13T16:50:25.634Z,10.39
2018-11-13T16:52:54.920Z,10.40
2018-11-13T16:55:28.688Z,10.35
2018-11-13T16:57:59.033Z,10.31
2018-11-13T17:00:27.528Z,10.29
2018-11-13T17:02:56.196Z,10.26
2018-11-13T17:05:26.021Z,10.23
2018-11-13T17:07:54.415Z,10.18
2018-11-13T17:10:24.301Z,10.14
2018-11-13T17:12:54.217Z,10.12
2018-11-13T17:15:24.818Z,10.11
2018-11-13T17:17:54.252Z,10.07
2018-11-13T17:20:22.768Z,10.03
2018-11-13T17:22:51.697Z,9.98
2018-11-13T17:25:21.694Z,9.94
2018-11-13T17:27:51.277Z,9.92
2018-11-13T17:30:22.429Z,9.98
2018-11-13T17:32:51.456Z,9.97
2018-11-13T17:35:21.254Z,9.94
2018-11-13T17:37:50.475Z,9.90
2018-11-13T17:40:20.539Z,9.85
2018-11-13T17:42:49.985Z,9.88
2018-11-13T17:45:29.407Z,9.80
2018-11-13T17:47:58.125Z,9.79
2018-11-13T17:50:28.066Z,9.78
2018-11-13T17:52:57.560Z,9.80
2018-11-13T17:55:26.203Z,9.79
2018-11-13T17:57:56.123Z,9.79
2018-11-13T18:00:27.107Z,9.77
2018-11-13T18:02:55.673Z,9.73
2018-11-13T18:05:25.183Z,9.68
2018-11-13T18:07:56.480Z,9.64
2018-11-13T18:10:25.468Z,9.61
2018-11-13T18:12:53.939Z,9.60
2018-11-13T18:15:24.706Z,9.59
2018-11-13T18:17:53.208Z,9.60
2018-11-13T18:20:25.011Z,9.58
2018-11-13T18:22:53.568Z,9.55
2018-11-13T18:25:22.031Z,9.55
2018-11-13T18:27:52.796Z,9.51
2018-11-13T18:30:37.887Z,9.53
2018-11-13T18:33:06.957Z,9.53
2018-11-13T18:35:36.987Z,9.49
2018-11-13T18:38:11.532Z,9.46
2018-11-13T18:40:40.022Z,9.40
2018-11-13T18:43:08.612Z,9.38
2018-11-13T18:45:38.773Z,9.36
2018-11-13T18:48:07.621Z,9.33
2018-11-13T18:50:45.479Z,9.29
2018-11-13T18:53:13.977Z,9.27
2018-11-13T18:55:42.878Z,9.25
2018-11-13T18:58:11.386Z,9.21
2018-11-13T19:00:42.001Z,9.19
2018-11-13T19:03:11.620Z,9.11
2018-11-13T19:05:40.433Z,9.08
2018-11-13T19:08:09.669Z,9.04
2018-11-13T19:10:41.717Z,9.07
2018-11-13T19:13:12.863Z,9.03
2018-11-13T19:15:43.895Z,8.99
2018-11-13T19:18:12.810Z,8.95
2018-11-13T19:20:41.519Z,8.94
2018-11-13T19:23:10.181Z,8.86
2018-11-13T19:25:39.220Z,8.90
2018-11-13T19:28:07.664Z,8.86
2018-11-13T19:30:36.154Z,8.86
2018-11-13T19:33:04.666Z,8.79
2018-11-13T19:35:33.236Z,8.76
2018-11-13T19:38:01.590Z,8.72
2018-11-13T19:40:31.661Z,8.70
2018-11-13T19:43:00.708Z,8.67
2018-11-13T19:45:29.160Z,8.64
2018-11-13T19:47:57.673Z,8.58
2018-11-13T19:50:28.393Z,8.56
2018-11-13T19:52:56.955Z,8.49
2018-11-13T19:55:25.974Z,8.48
2018-11-13T19:57:54.545Z,8.47
2018-11-13T20:00:38.259Z,8.43
2018-11-13T20:03:08.004Z,8.27
2018-11-13T20:05:36.455Z,8.26
2018-11-13T20:08:05.412Z,8.11
2018-11-13T20:10:34.802Z,8.10
2018-11-13T20:13:04.400Z,7.99
2018-11-13T20:15:33.638Z,7.88
2018-11-13T20:18:02.098Z,7.88
2018-11-13T20:20:31.647Z,7.91
2018-11-13T20:23:01.137Z,7.90
2018-11-13T20:25:31.092Z,7.75
2018-11-13T20:27:59.554Z,7.55
2018-11-13T20:30:30.082Z,7.63
2018-11-13T20:32:58.533Z,7.67
2018-11-13T20:35:27.092Z,7.63
2018-11-13T20:37:56.232Z,7.61
2018-11-13T20:40:28.313Z,7.44
2018-11-13T20:42:58.087Z,7.34
2018-11-13T20:45:26.545Z,7.28
2018-11-13T20:47:55.106Z,7.27
2018-11-13T20:50:25.872Z,7.23
2018-11-13T20:52:54.347Z,7.27
2018-11-13T20:55:22.829Z,7.34
2018-11-13T20:57:51.263Z,7.25
2018-11-13T21:00:22.065Z,7.28
2018-11-13T21:02:50.593Z,7.36
2018-11-13T21:05:19.186Z,7.32
2018-11-13T21:07:47.621Z,7.18
2018-11-13T21:10:18.091Z,7.06
2018-11-13T21:12:46.523Z,7.05
2018-11-13T21:15:16.359Z,6.96
2018-11-13T21:17:44.825Z,6.97
2018-11-13T21:20:15.781Z,6.91
2018-11-13T21:22:44.287Z,6.89
2018-11-13T21:25:14.266Z,6.80
2018-11-13T21:27:43.714Z,6.86
2018-11-13T21:30:14.732Z,6.84
2018-11-13T21:32:44.109Z,6.92
2018-11-13T21:35:12.997Z,6.94
2018-11-13T21:37:42.696Z,6.87
2018-11-13T21:40:13.181Z,6.86
2018-11-13T21:42:41.784Z,6.90
2018-11-13T21:45:11.135Z,6.90
2018-11-13T21:47:39.643Z,6.97
2018-11-13T21:50:11.194Z,6.84
2018-11-13T21:52:39.698Z,6.81
2018-11-13T21:55:10.034Z,6.78
2018-11-13T21:57:38.466Z,6.79
2018-11-13T22:00:15.335Z,6.82
2018-11-13T22:02:46.290Z,6.84
2018-11-13T22:05:14.688Z,6.84
2018-11-13T22:07:43.188Z,6.87
2018-11-13T22:10:12.233Z,6.74
2018-11-13T22:12:40.724Z,6.67
2018-11-13T22:15:12.098Z,6.68
2018-11-13T22:17:40.240Z,6.67
2018-11-13T22:20:10.123Z,6.66
2018-11-13T22:22:38.924Z,6.71
2018-11-13T22:25:09.917Z,6.70
2018-11-13T22:27:38.543Z,6.74
2018-11-13T22:30:08.215Z,6.75
2018-11-13T22:32:36.743Z,6.75
2018-11-13T22:35:06.514Z,6.67
2018-11-13T22:37:34.999Z,6.65
2018-11-13T22:40:03.602Z,6.65
2018-11-13T22:42:32.036Z,6.63
2018-11-13T22:45:00.488Z,6.58
2018-11-13T22:47:28.913Z,6.55
2018-11-13T22:49:57.394Z,6.46
2018-11-13T22:52:25.813Z,6.43
2018-11-13T22:54:54.382Z,6.45
2018-11-13T22:57:22.792Z,6.50
2018-11-13T22:59:51.602Z,6.45
2018-11-13T23:02:20.073Z,6.48
2018-11-13T23:04:48.484Z,6.52
2018-11-13T23:07:16.902Z,6.54
2018-11-13T23:09:45.325Z,6.54
2018-11-13T23:12:13.717Z,6.55
2018-11-13T23:14:42.180Z,6.46
2018-11-13T23:17:10.634Z,6.43
2018-11-13T23:19:39.109Z,6.33
2018-11-13T23:22:07.535Z,6.33
2018-11-13T23:24:35.931Z,6.39
2018-11-13T23:27:05.034Z,6.39
2018-11-13T23:29:33.477Z,6.33
2018-11-13T23:32:02.114Z,6.29
2018-11-13T23:34:30.355Z,6.34
2018-11-13T23:36:58.898Z,6.39
2018-11-13T23:39:27.341Z,6.42
2018-11-13T23:41:55.815Z,6.48
2018-11-13T23:44:24.290Z,6.19
2018-11-13T23:46:52.689Z,6.44
2018-11-13T23:49:21.146Z,6.48
2018-11-13T23:51:49.546Z,6.41
2018-11-13T23:54:17.909Z,6.39
2018-11-13T23:56:46.362Z,6.38
2018-11-13T23:59:14.805Z,6.44
